createdAt,value
2023-04-12T00:01:23.913Z,3.10
2023-04-12T00:03:51.292Z,4.20
2023-04-12T00:06:18.010Z,3.50
2023-04-12T00:08:44.466Z,4.80
2023-04-12T00:11:11.004Z,3.90
2023-04-12T00:13:37.595Z,2.80
2023-04-12T00:16:04.674Z,3.80
2023-04-12T00:18:31.575Z,3.80
2023-04-12T00:20:58.005Z,3.90
2023-04-12T00:23:24.596Z,4.30
2023-04-12T00:25:51.058Z,3.70
2023-04-12T00:28:17.648Z,5.30
2023-04-12T00:30:44.503Z,4.10
2023-04-12T00:33:11.071Z,4.10
2023-04-12T00:35:37.811Z,3.00
2023-04-12T00:38:04.314Z,3.10
2023-04-12T00:40:31.024Z,3.60
2023-04-12T00:42:57.658Z,3.40
2023-04-12T00:45:24.396Z,3.70
2023-04-12T00:47:51.082Z,3.90
2023-04-12T00:50:17.962Z,4.10
2023-04-12T00:52:46.570Z,3.70
2023-04-12T00:55:13.245Z,3.90
2023-04-12T00:57:40.549Z,4.20
2023-04-12T01:00:09.962Z,3.90
2023-04-12T01:02:37.519Z,3.70
2023-04-12T01:05:04.314Z,8.60
2023-04-12T01:07:49.757Z,8.00
2023-04-12T01:10:34.440Z,8.10
2023-04-12T01:13:20.633Z,6.40
2023-04-12T01:16:30.465Z,6.30
2023-04-12T01:19:03.004Z,5.80
2023-04-12T01:22:16.192Z,6.40
2023-04-12T01:25:08.463Z,6.50
2023-04-12T01:27:39.697Z,5.70
2023-04-12T01:30:09.235Z,6.40
2023-04-12T01:32:38.955Z,7.00
2023-04-12T01:35:08.487Z,6.60
2023-04-12T01:37:36.617Z,7.40
2023-04-12T01:40:04.038Z,7.30
2023-04-12T01:42:30.592Z,7.60
2023-04-12T01:44:57.101Z,7.70
2023-04-12T01:47:23.664Z,7.40
2023-04-12T01:50:02.331Z,8.20
2023-04-12T01:52:32.335Z,8.20
2023-04-12T01:55:06.284Z,7.70
2023-04-12T01:57:35.273Z,7.80
2023-04-12T02:00:03.635Z,7.70
2023-04-12T02:02:30.740Z,7.60
2023-04-12T02:04:59.261Z,7.00
2023-04-12T02:07:25.732Z,6.70
2023-04-12T02:09:52.273Z,5.30
2023-04-12T02:12:18.707Z,4.80
2023-04-12T02:14:45.288Z,4.40
2023-04-12T02:17:11.973Z,4.50
2023-04-12T02:19:38.587Z,4.00
2023-04-12T02:22:05.693Z,3.60
2023-04-12T02:24:32.322Z,3.10
2023-04-12T02:26:59.565Z,3.20
2023-04-12T02:29:26.141Z,3.00
2023-04-12T02:31:53.423Z,3.70
2023-04-12T02:34:20.296Z,3.30
2023-04-12T02:36:50.298Z,2.90
2023-04-12T02:39:17.265Z,6.30
2023-04-12T02:41:44.689Z,7.00
2023-04-12T02:44:11.188Z,6.40
2023-04-12T02:46:37.947Z,5.20
2023-04-12T02:49:04.521Z,3.20
2023-04-12T02:51:31.186Z,3.10
2023-04-12T02:53:57.882Z,3.20
2023-04-12T02:56:28.132Z,2.60
2023-04-12T02:58:54.619Z,2.10
2023-04-12T03:01:21.259Z,2.50
2023-04-12T03:03:48.372Z,2.50
2023-04-12T03:06:15.116Z,2.70
2023-04-12T03:08:41.570Z,2.80
2023-04-12T03:11:08.004Z,2.70
2023-04-12T03:13:34.441Z,2.90
2023-04-12T03:16:20.637Z,3.10
2023-04-12T03:18:47.412Z,3.80
2023-04-12T03:21:13.941Z,3.50
2023-04-12T03:23:40.469Z,3.80
2023-04-12T03:26:07.332Z,3.80
2023-04-12T03:28:34.394Z,4.00
2023-04-12T03:31:01.040Z,4.60
2023-04-12T03:33:28.298Z,4.90
2023-04-12T03:35:54.874Z,4.60
2023-04-12T03:38:21.953Z,4.60
2023-04-12T03:40:48.444Z,6.70
2023-04-12T03:43:14.932Z,5.90
2023-04-12T03:45:43.339Z,5.70
2023-04-12T03:48:10.083Z,6.70
2023-04-12T03:50:36.756Z,5.90
2023-04-12T03:53:03.304Z,8.00
2023-04-12T03:55:29.793Z,9.20
2023-04-12T03:58:00.105Z,10.70
2023-04-12T04:00:26.753Z,12.80
2023-04-12T04:02:53.337Z,13.00
2023-04-12T04:05:20.347Z,14.30
2023-04-12T04:07:47.288Z,12.90
2023-04-12T04:10:13.834Z,12.50
2023-04-12T04:12:40.924Z,12.40
2023-04-12T04:15:08.098Z,11.90
2023-04-12T04:17:34.665Z,10.70
2023-04-12T04:20:01.148Z,10.80
2023-04-12T04:22:27.684Z,11.10
2023-04-12T04:24:54.164Z,10.40
2023-04-12T04:27:20.701Z,11.40
2023-04-12T04:29:47.427Z,10.30
2023-04-12T04:32:13.901Z,10.50
2023-04-12T04:34:40.624Z,9.70
2023-04-12T04:37:07.197Z,14.10
2023-04-12T04:39:33.738Z,10.80
2023-04-12T04:42:00.191Z,10.20
2023-04-12T04:44:26.726Z,10.20
2023-04-12T04:46:53.182Z,11.50
2023-04-12T04:49:19.838Z,11.80
2023-04-12T04:51:46.359Z,14.10
2023-04-12T04:54:12.893Z,15.30
2023-04-12T04:56:39.741Z,15.50
2023-04-12T04:59:06.275Z,18.60
2023-04-12T05:01:32.875Z,20.30
2023-04-12T05:03:59.503Z,19.60
2023-04-12T05:06:26.104Z,20.00
2023-04-12T05:08:52.691Z,19.20
2023-04-12T05:11:19.830Z,16.60
2023-04-12T05:13:46.444Z,17.60
2023-04-12T05:16:13.055Z,16.80
2023-04-12T05:18:39.674Z,18.00
2023-04-12T05:21:06.414Z,17.80
2023-04-12T05:23:37.771Z,17.20
2023-04-12T05:28:31.018Z,16.10
2023-04-12T05:30:57.694Z,15.30
2023-04-12T05:33:24.165Z,14.50
2023-04-12T05:35:50.673Z,13.60
2023-04-12T05:38:17.159Z,12.30
2023-04-12T05:40:43.721Z,12.80
2023-04-12T05:43:10.921Z,13.20
2023-04-12T05:45:37.392Z,14.60
2023-04-12T05:48:04.637Z,14.90
2023-04-12T05:50:31.223Z,14.70
2023-04-12T05:52:57.649Z,15.10
2023-04-12T05:55:24.106Z,16.10
2023-04-12T05:57:50.568Z,16.10
2023-04-12T06:00:19.767Z,17.00
2023-04-12T06:02:47.725Z,15.70
2023-04-12T06:05:15.434Z,16.20
2023-04-12T06:07:42.015Z,16.60
2023-04-12T06:10:09.021Z,17.00
2023-04-12T06:12:35.492Z,14.60
2023-04-12T06:15:01.999Z,15.20
2023-04-12T06:17:28.589Z,16.10
2023-04-12T06:19:55.066Z,18.30
2023-04-12T06:22:21.486Z,20.20
2023-04-12T06:24:47.896Z,19.50
2023-04-12T06:27:14.365Z,19.20
2023-04-12T06:29:40.786Z,16.90
2023-04-12T06:32:07.388Z,14.60
2023-04-12T06:34:34.819Z,13.50
2023-04-12T06:37:01.526Z,13.40
2023-04-12T06:39:28.231Z,13.40
2023-04-12T06:41:54.707Z,11.30
2023-04-12T06:44:21.240Z,11.60
2023-04-12T06:46:47.700Z,12.00
2023-04-12T06:49:14.312Z,10.30
2023-04-12T06:51:40.731Z,11.50
2023-04-12T06:54:07.287Z,10.30
2023-04-12T06:56:33.821Z,11.90
2023-04-12T06:59:00.549Z,10.90
2023-04-12T07:01:28.904Z,9.30
2023-04-12T07:03:55.859Z,10.20
2023-04-12T07:06:25.771Z,9.70
2023-04-12T07:08:53.047Z,10.20
2023-04-12T07:11:22.168Z,10.00
2023-04-12T07:13:49.931Z,9.20
2023-04-12T07:16:17.425Z,8.90
2023-04-12T07:18:44.036Z,8.50
2023-04-12T07:21:10.565Z,8.80
2023-04-12T07:23:36.965Z,9.80
2023-04-12T07:26:03.738Z,10.50
2023-04-12T07:28:30.186Z,8.30
2023-04-12T07:30:56.616Z,7.70
2023-04-12T07:33:24.672Z,8.10
2023-04-12T07:35:51.228Z,7.50
2023-04-12T07:38:18.009Z,9.00
2023-04-12T07:40:44.443Z,9.10
2023-04-12T07:43:10.911Z,7.90
2023-04-12T07:45:37.486Z,7.80
2023-04-12T07:48:04.611Z,7.30
2023-04-12T07:50:31.331Z,7.20
2023-04-12T07:53:19.471Z,7.70
2023-04-12T07:55:46.179Z,7.70
2023-04-12T07:58:12.703Z,7.40
2023-04-12T08:00:39.206Z,7.60
2023-04-12T08:03:07.543Z,7.50
2023-04-12T08:05:34.838Z,7.50
2023-04-12T08:08:01.485Z,5.90
2023-04-12T08:10:28.151Z,6.50
2023-04-12T08:12:54.651Z,7.20
2023-04-12T08:15:21.457Z,8.80
2023-04-12T08:17:47.988Z,6.70
2023-04-12T08:20:14.961Z,6.90
2023-04-12T08:22:42.934Z,7.10
2023-04-12T08:25:09.790Z,6.00
2023-04-12T08:27:36.715Z,6.40
2023-04-12T08:30:03.611Z,6.40
2023-04-12T08:32:30.138Z,6.20
2023-04-12T08:34:56.566Z,5.70
2023-04-12T08:37:23.111Z,6.70
2023-04-12T08:39:49.656Z,7.70
2023-04-12T08:42:16.425Z,9.10
2023-04-12T08:44:44.073Z,7.60
2023-04-12T08:47:11.454Z,6.60
2023-04-12T08:49:38.858Z,7.10
2023-04-12T08:52:07.633Z,7.00
2023-04-12T08:54:35.293Z,6.80
2023-04-12T08:57:04.414Z,7.00
2023-04-12T08:59:32.117Z,7.20
2023-04-12T09:01:59.612Z,6.80
2023-04-12T09:04:32.286Z,7.00
2023-04-12T09:06:58.854Z,5.60
2023-04-12T09:09:45.574Z,6.00
2023-04-12T09:12:13.696Z,6.00
2023-04-12T09:14:40.811Z,6.20
2023-04-12T09:17:28.696Z,5.80
2023-04-12T09:19:55.213Z,6.10
2023-04-12T09:22:38.327Z,6.00
2023-04-12T09:25:05.502Z,6.80
2023-04-12T09:27:48.190Z,6.80
2023-04-12T09:30:17.114Z,7.40
2023-04-12T09:32:44.418Z,7.70
2023-04-12T09:35:11.502Z,8.00
2023-04-12T09:37:38.090Z,8.50
2023-04-12T09:40:10.059Z,5.90
2023-04-12T09:42:50.930Z,7.10
2023-04-12T09:45:25.916Z,7.20
2023-04-12T09:47:53.935Z,6.70
2023-04-12T09:50:28.794Z,6.50
2023-04-12T09:53:00.175Z,7.30
2023-04-12T09:57:56.119Z,6.10
2023-04-12T10:00:24.101Z,5.80
2023-04-12T10:02:53.114Z,6.90
2023-04-12T10:05:23.659Z,7.20
2023-04-12T10:07:51.379Z,8.60
2023-04-12T10:10:19.787Z,9.50
2023-04-12T10:12:48.171Z,6.20
2023-04-12T10:15:15.762Z,10.60
2023-04-12T10:17:44.855Z,9.30
2023-04-12T10:20:12.610Z,5.60
2023-04-12T10:22:40.956Z,6.90
2023-04-12T10:25:14.227Z,5.20
2023-04-12T10:27:42.043Z,5.30
2023-04-12T10:30:22.039Z,5.70
2023-04-12T10:33:07.143Z,5.50
2023-04-12T10:35:56.824Z,5.60
2023-04-12T10:38:24.714Z,8.30
2023-04-12T10:41:13.531Z,6.40
2023-04-12T10:43:50.555Z,6.60
2023-04-12T10:46:35.590Z,6.20
2023-04-12T10:49:08.760Z,6.50
2023-04-12T10:51:35.422Z,7.80
2023-04-12T10:54:07.745Z,8.00
2023-04-12T10:56:35.046Z,8.10
2023-04-12T10:59:03.743Z,7.80
2023-04-12T11:01:31.177Z,5.60
2023-04-12T11:04:07.604Z,5.90
2023-04-12T11:06:50.190Z,6.50
2023-04-12T11:09:20.945Z,6.40
2023-04-12T11:11:48.432Z,5.60
2023-04-12T11:14:16.082Z,5.40
2023-04-12T11:17:15.088Z,7.50
2023-04-12T11:19:44.056Z,6.40
2023-04-12T11:22:12.885Z,6.00
2023-04-12T11:24:43.573Z,5.10
2023-04-12T11:27:10.677Z,5.50
2023-04-12T11:29:37.260Z,5.10
2023-04-12T11:32:10.289Z,5.70
2023-04-12T11:34:37.382Z,6.10
2023-04-12T11:37:06.899Z,5.70
2023-04-12T11:39:34.244Z,5.20
2023-04-12T11:42:00.777Z,4.80
2023-04-12T11:44:27.320Z,4.60
2023-04-12T11:46:54.492Z,4.80
2023-04-12T11:49:22.782Z,5.80
2023-04-12T11:51:49.702Z,5.40
2023-04-12T11:54:16.357Z,5.20
2023-04-12T11:56:42.855Z,4.40
2023-04-12T11:59:09.497Z,4.70
2023-04-12T12:01:36.782Z,6.00
2023-04-12T12:04:04.829Z,3.90
2023-04-12T12:06:33.653Z,4.20
2023-04-12T12:09:03.192Z,5.20
2023-04-12T12:11:29.801Z,4.40
2023-04-12T12:13:56.882Z,3.30
2023-04-12T12:16:25.778Z,3.30
2023-04-12T12:18:53.648Z,3.90
2023-04-12T12:21:20.541Z,2.90
2023-04-12T12:23:47.660Z,2.70
2023-04-12T12:26:28.175Z,2.30
2023-04-12T12:28:56.703Z,2.00
2023-04-12T12:31:25.372Z,2.50
2023-04-12T12:33:59.510Z,2.60
2023-04-12T12:36:33.997Z,1.40
2023-04-12T12:39:06.548Z,1.60
2023-04-12T12:41:33.625Z,5.80
2023-04-12T12:44:00.281Z,1.90
2023-04-12T12:46:37.389Z,2.80
2023-04-12T12:49:13.294Z,1.80
2023-04-12T12:51:39.819Z,1.90
2023-04-12T12:54:06.318Z,2.00
2023-04-12T12:56:32.752Z,2.00
2023-04-12T12:58:59.470Z,2.00
2023-04-12T13:01:26.101Z,2.50
2023-04-12T13:03:53.242Z,1.90
2023-04-12T13:06:19.910Z,2.20
2023-04-12T13:08:46.512Z,2.00
2023-04-12T13:11:18.338Z,2.30
2023-04-12T13:13:44.949Z,2.30
2023-04-12T13:16:11.627Z,2.30
2023-04-12T13:18:38.246Z,2.70
2023-04-12T13:21:05.023Z,2.40
2023-04-12T13:23:31.567Z,2.40
2023-04-12T13:25:58.131Z,2.40
2023-04-12T13:28:24.549Z,2.40
2023-04-12T13:30:51.022Z,2.60
2023-04-12T13:33:20.989Z,2.10
2023-04-12T13:35:48.540Z,2.30
2023-04-12T13:38:14.990Z,4.10
2023-04-12T13:40:41.478Z,7.70
2023-04-12T13:43:08.143Z,7.30
2023-04-12T13:45:34.693Z,3.00
2023-04-12T13:48:01.465Z,17.90
2023-04-12T13:50:28.096Z,4.00
2023-04-12T13:52:54.574Z,2.80
2023-04-12T13:55:21.380Z,3.10
2023-04-12T13:57:47.838Z,2.40
2023-04-12T14:00:15.007Z,2.20
2023-04-12T14:02:44.314Z,2.30
2023-04-12T14:05:10.971Z,3.60
2023-04-12T14:07:39.717Z,3.90
2023-04-12T14:10:07.138Z,3.20
2023-04-12T14:12:33.882Z,6.30
2023-04-12T14:15:00.437Z,8.90
2023-04-12T14:17:27.379Z,3.70
2023-04-12T14:19:54.028Z,3.80
2023-04-12T14:22:23.157Z,4.00
2023-04-12T14:24:49.575Z,4.00
2023-04-12T14:27:17.987Z,5.50
2023-04-12T14:29:45.327Z,4.20
2023-04-12T14:32:11.763Z,3.40
2023-04-12T14:34:38.188Z,3.50
2023-04-12T14:37:04.630Z,3.80
2023-04-12T14:39:31.052Z,3.50
2023-04-12T14:41:57.592Z,3.10
2023-04-12T14:44:26.148Z,3.30
2023-04-12T14:46:53.274Z,3.60
2023-04-12T14:49:19.906Z,5.10
2023-04-12T14:51:46.340Z,3.60
2023-04-12T14:54:12.940Z,2.80
2023-04-12T14:56:46.207Z,3.20
2023-04-12T14:59:17.989Z,4.30
2023-04-12T15:01:44.586Z,3.40
2023-04-12T15:04:11.321Z,3.00
2023-04-12T15:06:37.930Z,3.80
2023-04-12T15:09:06.344Z,3.20
2023-04-12T15:11:33.288Z,3.10
2023-04-12T15:14:02.603Z,3.50
2023-04-12T15:16:29.271Z,3.60
2023-04-12T15:18:56.266Z,4.30
2023-04-12T15:21:23.449Z,4.60
2023-04-12T15:23:49.921Z,5.10
2023-04-12T15:26:16.329Z,3.30
2023-04-12T15:28:42.842Z,3.50
2023-04-12T15:31:09.745Z,3.50
2023-04-12T15:33:36.341Z,3.70
2023-04-12T15:36:03.927Z,6.30
2023-04-12T15:38:31.160Z,4.60
2023-04-12T15:41:00.979Z,4.50
2023-04-12T15:43:28.304Z,3.90
2023-04-12T15:45:55.254Z,3.80
2023-04-12T15:48:23.478Z,3.60
2023-04-12T15:50:51.323Z,3.60
2023-04-12T15:53:22.565Z,3.80
2023-04-12T15:55:49.301Z,4.50
2023-04-12T15:58:15.719Z,4.20
2023-04-12T16:00:42.451Z,3.80
2023-04-12T16:03:09.601Z,4.20
2023-04-12T16:05:36.640Z,3.90
2023-04-12T16:08:03.716Z,3.70
2023-04-12T16:10:30.188Z,3.80
2023-04-12T16:12:56.771Z,4.00
2023-04-12T16:15:26.957Z,4.50
2023-04-12T16:17:53.498Z,5.60
2023-04-12T16:20:20.421Z,18.00
2023-04-12T16:22:47.764Z,5.90
2023-04-12T16:25:15.806Z,4.60
2023-04-12T16:27:43.631Z,3.40
2023-04-12T16:30:10.718Z,3.40
2023-04-12T16:32:37.593Z,5.00
2023-04-12T16:35:04.652Z,4.00
2023-04-12T16:37:31.440Z,6.30
2023-04-12T16:39:57.904Z,9.40
2023-04-12T16:42:24.404Z,7.00
2023-04-12T16:44:50.886Z,10.50
2023-04-12T16:47:17.485Z,6.80
2023-04-12T16:49:44.156Z,7.70
2023-04-12T16:52:10.600Z,7.00
2023-04-12T16:54:37.140Z,5.60
2023-04-12T16:57:03.618Z,4.10
2023-04-12T16:59:32.114Z,6.20
2023-04-12T17:01:58.643Z,8.70
2023-04-12T17:04:25.117Z,6.90
2023-04-12T17:06:51.727Z,7.50
2023-04-12T17:09:18.141Z,8.50
2023-04-12T17:11:44.642Z,11.70
2023-04-12T17:14:11.167Z,9.10
2023-04-12T17:16:41.436Z,28.70
2023-04-12T17:19:10.351Z,75.10
2023-04-12T17:21:41.823Z,97.60
2023-04-12T17:26:35.362Z,21.40
2023-04-12T17:29:01.889Z,42.00
2023-04-12T17:31:31.790Z,26.60
2023-04-12T17:33:59.343Z,27.70
2023-04-12T17:36:26.141Z,35.10
2023-04-12T17:38:53.642Z,34.40
2023-04-12T17:41:20.834Z,31.80
2023-04-12T17:43:47.332Z,31.30
2023-04-12T17:46:13.992Z,27.00
2023-04-12T17:48:40.516Z,30.30
2023-04-12T17:51:07.062Z,37.40
2023-04-12T17:53:33.894Z,54.60
2023-04-12T17:56:00.306Z,34.10
2023-04-12T17:58:26.810Z,28.10
2023-04-12T18:00:53.540Z,34.90
2023-04-12T18:03:20.357Z,55.60
2023-04-12T18:05:47.080Z,53.90
2023-04-12T18:08:13.577Z,66.80
2023-04-12T18:10:39.999Z,79.50
2023-04-12T18:13:06.443Z,79.90
2023-04-12T18:15:33.319Z,64.80
2023-04-12T18:18:00.301Z,58.50
2023-04-12T18:20:27.161Z,58.80
2023-04-12T18:22:53.674Z,78.50
2023-04-12T18:25:20.427Z,91.30
2023-04-12T18:27:47.609Z,105.70
2023-04-12T18:30:14.414Z,87.40
2023-04-12T18:32:41.382Z,91.80
2023-04-12T18:35:09.970Z,89.20
2023-04-12T18:37:36.418Z,74.30
2023-04-12T18:40:03.322Z,85.70
2023-04-12T18:42:29.941Z,85.10
2023-04-12T18:44:56.451Z,63.20
2023-04-12T18:47:22.915Z,78.40
2023-04-12T18:49:49.838Z,68.30
2023-04-12T18:52:16.233Z,65.00
2023-04-12T18:54:42.665Z,69.20
2023-04-12T18:57:09.255Z,61.60
2023-04-12T18:59:35.767Z,59.70
2023-04-12T19:02:02.432Z,62.50
2023-04-12T19:04:29.166Z,66.40
2023-04-12T19:06:56.237Z,56.10
2023-04-12T19:09:22.813Z,52.50
2023-04-12T19:11:49.287Z,56.00
2023-04-12T19:14:15.798Z,55.00
2023-04-12T19:16:42.409Z,59.30
2023-04-12T19:19:12.818Z,56.80
2023-04-12T19:21:39.438Z,50.00
2023-04-12T19:24:06.245Z,52.70
2023-04-12T19:26:32.825Z,67.30
2023-04-12T19:28:59.229Z,65.10
2023-04-12T19:31:26.317Z,69.30
2023-04-12T19:33:55.000Z,66.70
2023-04-12T19:36:21.662Z,72.50
2023-04-12T19:38:48.099Z,74.90
2023-04-12T19:41:17.207Z,70.20
2023-04-12T19:43:43.642Z,71.50
2023-04-12T19:46:10.136Z,70.50
2023-04-12T19:48:36.844Z,70.90
2023-04-12T19:51:03.492Z,73.60
2023-04-12T19:53:29.917Z,77.30
2023-04-12T19:55:57.387Z,89.00
2023-04-12T19:58:24.242Z,91.00
2023-04-12T20:00:51.788Z,92.70
2023-04-12T20:03:18.501Z,90.20
2023-04-12T20:05:45.103Z,85.30
2023-04-12T20:08:11.957Z,87.00
2023-04-12T20:10:38.730Z,79.40
2023-04-12T20:13:05.515Z,81.10
2023-04-12T20:15:32.064Z,77.40
2023-04-12T20:17:58.671Z,82.70
2023-04-12T20:20:27.306Z,74.20
2023-04-12T20:22:53.851Z,73.50
2023-04-12T20:25:20.532Z,100.10
2023-04-12T20:27:47.481Z,95.80
2023-04-12T20:30:14.012Z,141.00
2023-04-12T20:32:40.834Z,139.50
2023-04-12T20:35:08.041Z,111.50
2023-04-12T20:37:34.454Z,121.80
2023-04-12T20:40:01.127Z,100.60
2023-04-12T20:42:27.623Z,68.10
2023-04-12T20:44:54.081Z,63.10
2023-04-12T20:47:20.642Z,54.30
2023-04-12T20:49:47.298Z,53.10
2023-04-12T20:52:13.829Z,50.40
2023-04-12T20:54:40.383Z,56.60
2023-04-12T20:57:07.019Z,68.80
2023-04-12T20:59:33.574Z,62.40
2023-04-12T21:02:00.394Z,53.80
2023-04-12T21:04:27.035Z,74.80
2023-04-12T21:06:54.689Z,61.40
